Aérodrome :
LOGIN :

S'inscrire | Disclaimer

   EN    FR    IT 

 










Légende :    VFR   VFR Marginal   IFR   IFR Intensif   IFR Très Intensif
Visi : 
Plafond : 
>= 8 km
>= 3000ft
5 à 8 km
1000 à 3000 ft
1500m à 5 km
500 à 1000 ft
800 à 1500m
200 à 500 ft
< 800m
< 200 ft
Symboles :   Orages  Brouillard  Fortes neiges  Fortes précipitations  Vent > 20 kt
SIGMETs :   Divers  Orages  Givrage  Turbulence  Onde Orograph.  Cendres Volcan.






- Altitude de l'aérodrome : 479 ft
- Code IATA : DOL


LFRG - Deauville

DERNIER METAR :
  • 251700Z AUTO 31006KT 270V350 9999 FEW040 BKN210 04/M02 Q1015 NOSIG

METARs EXPIRÉS :
  • 251630Z AUTO 31007KT 250V340 9999 SCT033 BKN052 BKN220 05/M02 Q1015 NOSIG
  • 251600Z AUTO 28008KT 9999 FEW029 BKN035 BKN044 05/M01 Q1014 NOSIG
  • 251530Z AUTO 29009KT 260V330 9999 FEW031 SCT037 05/M01 Q1014 NOSIG
  • 251500Z AUTO 31008KT 270V340 9999 FEW030 06/M01 Q1013 NOSIG
  • 251430Z AUTO 31008KT 280V020 CAVOK 06/M02 Q1013 NOSIG

TAF TAF LFRG
Valide du 25 à 15h jusqu'au 26 à 00h UTC


251400Z 2515/2524 33008KT CAVOK
ATIS : +33 2 31 65 65 36



MET'MAP, la Météo Aéronautique d'un coup d'oeil ! - Copyright ORBIFLY Décembre 2007 - Disclaimer

ORBIFLY MET'MAP TEAM :

Programmation & Développement : Alexandra Zaïnal
Sur une idée originale de : Baudouin d'Aumeries
Assistance à la programmation : Marc-Olivier Méhu
Soutien technique & logistique : Manuel Goepfert

Contact : metmap@orbifly.com




SOURCES & CREDITS :

   NOAA